< Typhoon 199908 1999 Season Typhoon 199910 >
Typhoon 199909 (RACHEL)
General InformationTrack Information on Google MapsDetailed Wind InformationList of All Images || Disaster Info.ResourceGoogle EarthGE AnimationAtom FeedGeoJSON
Detalied Best Track (Time Zone = UTC)
Year Month Day Hour Lat. Long. Pressure (hPa) Wind (kt) Class Image Chart
1999 8 5 18 21.1 115.5 996 0 2 Image Chart
1999 8 6 00 20.9 116.3 996 0 2 Image Chart
1999 8 6 06 21.1 116.8 996 0 2 Image Chart
1999 8 6 12 21.2 117.3 996 0 2 Image Chart
1999 8 6 18 21.6 117.9 996 0 2 Image Chart
1999 8 7 00 22.4 119.0 996 0 2 Image Chart
1999 8 7 06 23.4 120.1 994 0 2 Image Chart
1999 8 7 12 24.7 122.7 994 0 2 Image Chart
1999 8 7 18 25.2 125.0 992 35 3 Image Chart
1999 8 8 00 26.1 126.6 994 35 3 Image Chart
1999 8 8 06 26.7 128.0 996 35 3 Image Chart
1999 8 8 09 27.0 128.3 996 0 2 Image Chart
1999 8 8 12 27.3 128.3 996 0 2 Image Chart
1999 8 8 18 28.3 128.5 998 0 2 Image Chart
1999 8 9 00 28.8 128.3 1000 0 2 Image Chart
1999 8 9 06 30.0 127.3 1000 0 2 Image Chart
1999 8 9 12 31.4 125.3 1000 0 2 Image Chart
1999 8 9 18 32.6 123.8 1000 0 2 Image Chart
1999 8 10 00 33.2 123.2 1000 0 2 Image Chart
1999 8 10 06 34.3 122.7 1000 0 2 Image Chart
1999 8 10 12 35.2 121.9 1002 0 2 Image Chart
1999 8 10 18 35.7 120.9 1002 0 2 Image Chart
1999 8 11 00 36.0 120.3 1004 0 2 Image Chart
Japan Meteorological Agency Best Track Data | Correction Date : 2005-03-01
< Typhoon 199908 1999 Season Typhoon 199910 >

Help